Thule Air Base, Greenland
Current Conditions -  °F | °C
As of 3:58 AM on Monday 24 Nov 2014 (Local Time) from BGTL Reporting Station
Clear Clear  
Wind Chill: -10°   Ceiling: Unl
Heat Index:   Visibility: 6mi
Dew Point: -4°   Wind: 7mph
Humidity: 75%   Direction: 90°E
Pressure: 28.95"   Gusts: NA
Location:  76.53°N, 68.7°W
Report Text: BGTL 240658Z AUTO 09006KT 9999 CLR M16/M20 A2895 RMK AO2 SLP794 T11631198
Loading
Personal Weather Stations






























Interactive Weather Map New forecast layout! Learn more

10-Day Weather Forecast

Advertisements
Track Severe Weather on mobile